Time;durP1;ratioP1;P1;durP2;ratioP2;P2;SDS_P1;SDS_P2;PMS_P1;PMS_P2;Temp;Humidity;BMP_temperature;BMP_pressure;BME280_temperature;BME280_humidity;BME280_pressure;Samples;Min_cycle;Max_cycle;Signal;HPM_P1;HPM_P2
2022/07/01 00:02:05;;;;;;;15.30;5.10;;;16.60;99.90;;;;;;5011319;28;20180;-77
2022/07/01 00:04:31;;;;;;;12.50;4.07;;;16.60;99.90;;;;;;4993433;28;20208;-78
2022/07/01 00:06:57;;;;;;;6.63;4.00;;;16.60;99.90;;;;;;4993596;28;20213;-77
2022/07/01 00:09:23;;;;;;;7.27;4.90;;;16.40;99.90;;;;;;4993404;28;20416;-77
2022/07/01 00:11:50;;;;;;;9.27;5.17;;;16.50;99.90;;;;;;5011149;28;20411;-77
2022/07/01 00:14:15;;;;;;;6.73;4.30;;;16.50;99.90;;;;;;5011388;28;20457;-77
2022/07/01 00:16:41;;;;;;;5.03;4.37;;;16.50;99.90;;;;;;4993231;28;21022;-78
2022/07/01 00:19:07;;;;;;;8.60;4.60;;;16.40;99.90;;;;;;5011052;28;20194;-78
2022/07/01 00:21:33;;;;;;;8.23;4.77;;;16.40;99.90;;;;;;4993610;28;20435;-79
2022/07/01 00:23:59;;;;;;;6.87;3.70;;;16.30;99.90;;;;;;4992999;28;20522;-78
2022/07/01 00:26:25;;;;;;;5.17;3.77;;;16.30;99.90;;;;;;4993060;28;20557;-78
2022/07/01 00:28:50;;;;;;;6.73;3.70;;;16.30;99.90;;;;;;5010933;28;20643;-78
2022/07/01 00:31:16;;;;;;;7.13;4.00;;;16.30;99.90;;;;;;4976924;28;20356;-78
2022/07/01 00:33:42;;;;;;;5.40;4.13;;;16.30;99.90;;;;;;5011324;28;20180;-78
2022/07/01 00:36:07;;;;;;;7.70;3.00;;;16.30;99.90;;;;;;5011122;28;20324;-79
2022/07/01 00:38:33;;;;;;;5.03;2.17;;;16.20;99.90;;;;;;4993359;28;20235;-78
2022/07/01 00:40:59;;;;;;;5.83;1.83;;;16.10;99.90;;;;;;5011020;28;20257;-79
2022/07/01 00:43:25;;;;;;;6.13;2.13;;;16.10;99.90;;;;;;4993174;28;20258;-78
2022/07/01 00:45:51;;;;;;;3.90;2.13;;;16.00;99.90;;;;;;4992834;28;20217;-78
2022/07/01 00:48:19;;;;;;;3.10;1.60;;;15.90;99.90;;;;;;4993068;28;20602;-78
2022/07/01 00:50:45;;;;;;;2.47;1.40;;;15.80;99.90;;;;;;4976564;28;20425;-78
2022/07/01 00:53:12;;;;;;;1.90;1.70;;;15.80;99.90;;;;;;4976981;28;20431;-78
2022/07/01 00:55:38;;;;;;;3.67;1.50;;;15.70;99.90;;;;;;4992949;28;20215;-79
2022/07/01 00:58:03;;;;;;;3.10;1.60;;;15.60;99.90;;;;;;4993444;28;20924;-79
2022/07/01 01:00:29;;;;;;;1.73;1.33;;;15.40;99.90;;;;;;4992713;28;20183;-78
2022/07/01 01:02:55;;;;;;;2.33;1.20;;;15.40;99.90;;;;;;5010256;28;20197;-77
2022/07/01 01:05:21;;;;;;;4.13;1.53;;;15.30;99.90;;;;;;5010047;28;20214;-77
2022/07/01 01:07:50;;;;;;;1.90;1.30;;;15.30;99.90;;;;;;5010149;28;20203;-79
2022/07/01 01:10:17;;;;;;;1.10;1.00;;;15.20;99.90;;;;;;5009976;28;20798;-77
2022/07/01 01:12:43;;;;;;;2.60;1.30;;;15.10;99.90;;;;;;4991983;28;20508;-76
2022/07/01 01:15:10;;;;;;;1.30;1.00;;;15.10;99.90;;;;;;5009675;28;20473;-76
2022/07/01 01:17:37;;;;;;;2.50;0.97;;;15.00;99.90;;;;;;5009888;28;20429;-78
2022/07/01 01:20:03;;;;;;;3.53;1.20;;;14.90;99.90;;;;;;5009922;28;20424;-76
2022/07/01 01:22:29;;;;;;;4.73;1.53;;;14.90;99.90;;;;;;5009815;28;20844;-78
2022/07/01 01:24:57;;;;;;;1.10;1.00;;;14.90;99.90;;;;;;4992083;28;20493;-76
2022/07/01 01:27:22;;;;;;;4.10;1.27;;;14.90;99.90;;;;;;5009874;28;20192;-77
2022/07/01 01:29:48;;;;;;;1.20;1.00;;;14.90;99.90;;;;;;5009796;28;20421;-77
2022/07/01 01:32:13;;;;;;;1.70;1.60;;;14.90;99.90;;;;;;4992055;28;20189;-76
2022/07/01 01:34:40;;;;;;;1.40;1.10;;;14.90;99.90;;;;;;4992019;28;20210;-76
2022/07/01 01:37:07;;;;;;;1.93;1.00;;;14.80;99.90;;;;;;4975920;28;20186;-78
2022/07/01 01:39:33;;;;;;;4.67;1.30;;;14.90;99.90;;;;;;4992534;28;20459;-77
2022/07/01 01:41:59;;;;;;;1.33;1.03;;;14.90;99.90;;;;;;4991898;28;20429;-78
2022/07/01 01:44:24;;;;;;;2.50;1.40;;;14.90;99.90;;;;;;4991712;28;20197;-78
2022/07/01 01:46:50;;;;;;;3.73;1.10;;;14.70;99.90;;;;;;4991562;28;20656;-79
2022/07/01 01:49:15;;;;;;;2.30;1.10;;;14.60;99.90;;;;;;5009434;28;20194;-78
2022/07/01 01:51:41;;;;;;;2.73;0.90;;;14.70;99.90;;;;;;4991651;28;20725;-77
2022/07/01 01:54:07;;;;;;;2.10;0.97;;;14.50;99.90;;;;;;5009283;28;20194;-78
2022/07/01 01:56:33;;;;;;;2.07;1.00;;;14.50;99.90;;;;;;5009377;28;20734;-77
2022/07/01 01:58:59;;;;;;;1.40;1.00;;;14.40;99.90;;;;;;5009370;28;20229;-79
2022/07/01 02:01:25;;;;;;;1.37;1.07;;;14.30;99.90;;;;;;4991457;28;20203;-77
2022/07/01 02:03:52;;;;;;;4.20;1.00;;;14.20;99.90;;;;;;4991652;28;20473;-78
2022/07/01 02:06:19;;;;;;;1.20;0.93;;;14.30;99.90;;;;;;4991574;28;20458;-79
2022/07/01 02:08:45;;;;;;;3.60;1.10;;;14.30;99.90;;;;;;4991911;28;20474;-78
2022/07/01 02:11:10;;;;;;;2.67;1.00;;;14.40;99.90;;;;;;5009401;28;20832;-79
2022/07/01 02:13:37;;;;;;;1.23;0.80;;;14.40;99.90;;;;;;4977253;28;20232;-77
2022/07/01 02:16:03;;;;;;;2.50;1.93;;;14.40;99.90;;;;;;5010299;28;20588;-78
2022/07/01 02:18:30;;;;;;;1.67;1.30;;;14.30;99.90;;;;;;4992279;28;20431;-77
2022/07/01 02:20:55;;;;;;;3.30;1.47;;;14.30;99.90;;;;;;5010541;28;20829;-77
2022/07/01 02:23:21;;;;;;;2.17;1.03;;;14.30;99.90;;;;;;4992717;28;20471;-77
2022/07/01 02:25:47;;;;;;;1.00;0.80;;;14.20;99.90;;;;;;4991545;28;20272;-78
2022/07/01 02:28:13;;;;;;;2.77;0.63;;;14.10;99.90;;;;;;5009965;28;20988;-78
2022/07/01 02:30:39;;;;;;;4.03;1.10;;;14.20;99.90;;;;;;5011151;28;20427;-77
2022/07/01 02:33:06;;;;;;;1.73;1.03;;;14.30;99.90;;;;;;5010725;28;20217;-77
2022/07/01 02:35:33;;;;;;;2.03;1.00;;;14.20;99.90;;;;;;5010137;28;20699;-78
2022/07/01 02:37:58;;;;;;;1.83;0.87;;;14.20;99.90;;;;;;4992780;28;20961;-77
2022/07/01 02:40:24;;;;;;;2.70;0.97;;;14.20;99.90;;;;;;5010369;28;20452;-78
2022/07/01 02:42:50;;;;;;;0.90;0.70;;;14.20;99.90;;;;;;4976130;28;20189;-76
2022/07/01 02:45:15;;;;;;;3.03;1.03;;;14.20;99.90;;;;;;4992208;28;20205;-76
2022/07/01 02:47:41;;;;;;;3.03;0.80;;;14.30;99.90;;;;;;4992225;28;20247;-77
2022/07/01 02:50:09;;;;;;;4.70;1.10;;;14.30;99.90;;;;;;4991871;28;20188;-77
2022/07/01 02:52:37;;;;;;;1.30;1.03;;;14.40;99.90;;;;;;5009827;28;20427;-77
2022/07/01 02:55:08;;;;;;;1.10;1.00;;;14.50;99.90;;;;;;4991476;28;20495;-76
2022/07/01 02:57:34;;;;;;;2.20;1.17;;;14.60;99.90;;;;;;4991082;28;20415;-74
2022/07/01 02:59:59;;;;;;;1.10;1.00;;;14.70;99.90;;;;;;4991184;28;20425;-75
2022/07/01 03:02:25;;;;;;;1.30;1.20;;;14.60;99.90;;;;;;5008952;28;20423;-75
2022/07/01 03:04:52;;;;;;;1.93;0.93;;;14.60;99.90;;;;;;5008704;28;20752;-75
2022/07/01 03:07:19;;;;;;;1.07;0.97;;;14.70;99.90;;;;;;4990924;28;20188;-74
2022/07/01 03:09:45;;;;;;;5.30;1.23;;;14.60;99.90;;;;;;4991407;28;20959;-74
2022/07/01 03:12:24;;;;;;;4.43;1.30;;;14.60;99.90;;;;;;5009159;28;20428;-76
2022/07/01 03:14:58;;;;;;;5.23;1.00;;;14.50;99.90;;;;;;5009147;28;20436;-75
2022/07/01 03:17:25;;;;;;;1.20;1.10;;;14.60;99.90;;;;;;5009295;28;20548;-75
2022/07/01 03:19:52;;;;;;;3.20;1.23;;;14.60;99.90;;;;;;4975202;28;20425;-75
2022/07/01 03:22:17;;;;;;;1.63;1.20;;;14.70;99.90;;;;;;4975370;28;20428;-75
2022/07/01 03:24:43;;;;;;;1.50;1.33;;;14.60;99.90;;;;;;4992175;28;20980;-75
2022/07/01 03:27:09;;;;;;;3.37;1.50;;;14.60;99.90;;;;;;4977991;28;20429;-75
2022/07/01 03:29:35;;;;;;;1.40;1.10;;;14.60;99.90;;;;;;5012117;28;20218;-76
2022/07/01 03:32:00;;;;;;;8.20;1.60;;;14.50;99.90;;;;;;4995409;28;20264;-77
2022/07/01 03:34:26;;;;;;;2.77;1.43;;;14.50;99.90;;;;;;4992498;28;20459;-76
2022/07/01 03:36:52;;;;;;;3.80;1.40;;;14.50;99.90;;;;;;4993023;28;20205;-76
2022/07/01 03:39:17;;;;;;;2.23;1.13;;;14.50;99.90;;;;;;5012787;28;20284;-77
2022/07/01 03:41:44;;;;;;;2.20;1.20;;;14.40;99.90;;;;;;4994425;28;20185;-76
2022/07/01 03:44:09;;;;;;;2.70;1.00;;;14.50;99.90;;;;;;5012298;28;20198;-76
2022/07/01 03:46:35;;;;;;;1.40;1.30;;;14.50;99.90;;;;;;5011902;28;20515;-76
2022/07/01 03:49:02;;;;;;;1.30;1.20;;;14.50;99.90;;;;;;5011737;28;20228;-76
2022/07/01 03:51:27;;;;;;;1.60;1.50;;;14.40;99.90;;;;;;4993973;28;20436;-76
2022/07/01 03:56:38;;;;;;;2.23;2.03;;;14.40;99.90;;;;;;5011717;28;20624;-77
2022/07/01 03:59:03;;;;;;;3.10;1.77;;;14.30;99.90;;;;;;4992690;28;20435;-77
2022/07/01 04:01:29;;;;;;;1.33;1.20;;;14.40;99.90;;;;;;4992505;28;20185;-78
2022/07/01 04:03:56;;;;;;;1.60;1.30;;;14.40;99.90;;;;;;4992451;28;20421;-78
2022/07/01 04:06:22;;;;;;;5.53;1.40;;;14.40;99.90;;;;;;4992469;28;20192;-77
2022/07/01 04:08:48;;;;;;;2.20;1.53;;;14.40;99.90;;;;;;5009950;28;20992;-78
2022/07/01 04:11:15;;;;;;;1.57;1.40;;;14.40;99.90;;;;;;4992323;28;20424;-78
2022/07/01 04:13:40;;;;;;;1.60;1.43;;;14.40;99.90;;;;;;4992488;28;20428;-78
2022/07/01 04:16:06;;;;;;;6.60;1.27;;;14.40;99.90;;;;;;4992061;28;20900;-78
2022/07/01 04:18:32;;;;;;;2.10;1.50;;;14.40;99.90;;;;;;4992365;28;20251;-77
2022/07/01 04:23:43;;;;;;;1.53;1.43;;;14.40;99.90;;;;;;5010018;28;20448;-77
2022/07/01 04:26:09;;;;;;;4.83;1.67;;;14.40;99.90;;;;;;5009677;28;20941;-77
2022/07/01 04:28:35;;;;;;;1.80;1.70;;;14.30;99.90;;;;;;5009724;28;20417;-77
2022/07/01 04:31:01;;;;;;;4.27;2.13;;;14.30;99.90;;;;;;4975737;28;20193;-77
2022/07/01 04:33:26;;;;;;;1.37;1.27;;;14.40;99.90;;;;;;4975873;28;20199;-77
2022/07/01 04:35:52;;;;;;;1.97;1.80;;;14.40;99.90;;;;;;4991991;28;20725;-77
2022/07/01 04:38:18;;;;;;;1.63;1.30;;;14.40;99.90;;;;;;4992035;28;20193;-77
2022/07/01 04:41:58;;;;;;;1.60;1.50;;;14.40;99.90;;;;;;4992065;28;20185;-77
2022/07/01 04:43:29;;;;;;;1.83;1.40;;;14.40;99.90;;;;;;5009411;28;20196;-78
2022/07/01 04:45:55;;;;;;;5.50;1.40;;;14.50;99.90;;;;;;5009354;28;20823;-77
2022/07/01 04:48:21;;;;;;;2.53;1.97;;;14.50;99.90;;;;;;4990952;28;20215;-77
2022/07/01 04:50:47;;;;;;;2.80;1.60;;;14.50;99.90;;;;;;5009484;28;20186;-78
2022/07/01 04:53:15;;;;;;;3.77;2.03;;;14.50;99.90;;;;;;4991599;28;20508;-77
2022/07/01 04:55:41;;;;;;;1.73;1.53;;;14.50;99.90;;;;;;4991253;28;20221;-77
2022/07/01 04:58:07;;;;;;;1.47;1.37;;;14.40;99.90;;;;;;4991660;28;20417;-77
2022/07/01 05:00:32;;;;;;;1.43;1.33;;;14.50;99.90;;;;;;5009300;28;21008;-77
2022/07/01 05:02:58;;;;;;;2.43;1.57;;;14.50;99.90;;;;;;4991497;28;20207;-77
2022/07/01 05:05:24;;;;;;;2.47;1.87;;;14.50;99.90;;;;;;4991591;28;20201;-77
2022/07/01 05:07:49;;;;;;;2.10;1.70;;;14.70;99.90;;;;;;4991666;28;20885;-76
2022/07/01 05:10:15;;;;;;;1.50;1.40;;;14.60;99.90;;;;;;4975371;28;20197;-77
2022/07/01 05:12:41;;;;;;;4.10;1.30;;;14.60;99.90;;;;;;5009678;28;20344;-77
2022/07/01 05:15:08;;;;;;;2.70;1.43;;;14.60;99.90;;;;;;4975556;28;20221;-76
2022/07/01 05:23:02;;;;;;;3.37;1.70;;;14.60;99.90;;;;;;4994900;28;20455;-77
2022/07/01 05:25:28;;;;;;;2.20;2.00;;;14.50;99.90;;;;;;4992494;28;20444;-77
2022/07/01 05:27:57;;;;;;;5.73;2.10;;;14.40;99.90;;;;;;5009067;28;20189;-77
2022/07/01 05:30:22;;;;;;;1.80;1.70;;;14.50;99.90;;;;;;4991651;28;20279;-77
2022/07/01 05:32:48;;;;;;;2.40;2.20;;;14.50;99.90;;;;;;5008729;28;21103;-76
2022/07/01 05:35:14;;;;;;;5.27;2.30;;;14.50;99.90;;;;;;5008583;28;20472;-77
2022/07/01 05:37:41;;;;;;;3.30;2.40;;;14.50;99.90;;;;;;4974355;28;20243;-77
2022/07/01 05:40:07;;;;;;;2.37;2.17;;;14.50;99.90;;;;;;4990554;28;20262;-76
2022/07/01 05:42:33;;;;;;;2.90;2.17;;;14.40;99.90;;;;;;5008307;28;20461;-77
2022/07/01 05:44:59;;;;;;;2.50;2.10;;;14.40;99.90;;;;;;4990488;28;20439;-78
2022/07/01 05:47:25;;;;;;;2.27;2.07;;;14.30;99.90;;;;;;5008200;28;20217;-77
2022/07/01 05:49:50;;;;;;;3.60;2.33;;;14.30;99.90;;;;;;5008129;28;20177;-77
2022/07/01 05:52:16;;;;;;;3.60;2.93;;;14.30;99.90;;;;;;5008095;28;20181;-77
2022/07/01 05:54:42;;;;;;;2.50;2.30;;;14.30;99.90;;;;;;4990218;28;20212;-77
2022/07/01 05:57:07;;;;;;;5.17;2.27;;;14.20;99.90;;;;;;5007927;28;20212;-77
2022/07/01 05:59:33;;;;;;;3.57;1.93;;;14.30;99.90;;;;;;4990197;28;20185;-77
2022/07/01 06:01:59;;;;;;;2.17;1.97;;;14.30;99.90;;;;;;5008117;28;20288;-76
2022/07/01 06:04:24;;;;;;;2.13;1.70;;;14.40;99.90;;;;;;5007818;28;20348;-77
2022/07/01 06:06:50;;;;;;;2.70;2.20;;;14.30;99.90;;;;;;5007798;28;20191;-77
2022/07/01 06:09:16;;;;;;;2.03;1.90;;;14.30;99.90;;;;;;4989897;28;20686;-76
2022/07/01 06:11:41;;;;;;;3.40;1.30;;;14.30;99.90;;;;;;4989901;28;20235;-76
2022/07/01 06:14:07;;;;;;;1.70;1.60;;;14.30;99.90;;;;;;4990124;28;20213;-77
2022/07/01 06:16:32;;;;;;;3.23;1.63;;;14.30;99.90;;;;;;4990001;28;20217;-76
2022/07/01 06:18:59;;;;;;;2.80;1.43;;;14.30;99.90;;;;;;4990198;28;20718;-77
2022/07/01 06:21:24;;;;;;;1.53;1.43;;;14.20;99.90;;;;;;4989742;28;20279;-77
2022/07/01 06:23:50;;;;;;;3.07;1.20;;;14.20;99.90;;;;;;4989851;28;20563;-77
2022/07/01 06:26:15;;;;;;;3.50;1.33;;;14.30;99.90;;;;;;5007709;28;20189;-77
2022/07/01 06:28:42;;;;;;;4.27;1.30;;;14.20;99.90;;;;;;5007562;28;20279;-77
2022/07/01 06:31:08;;;;;;;3.57;1.20;;;14.30;99.90;;;;;;4989842;28;20184;-77
2022/07/01 06:33:33;;;;;;;1.83;1.20;;;14.30;99.90;;;;;;4989779;28;21121;-76
2022/07/01 06:35:59;;;;;;;1.40;1.03;;;14.30;99.90;;;;;;5007250;28;20213;-76
2022/07/01 06:38:25;;;;;;;1.93;1.60;;;14.30;99.90;;;;;;5007408;28;20424;-77
2022/07/01 06:43:36;;;;;;;1.90;1.07;;;14.30;99.90;;;;;;5007764;28;20424;-76
2022/07/01 06:46:02;;;;;;;1.00;0.90;;;14.30;99.90;;;;;;5007407;28;20944;-76
2022/07/01 06:48:28;;;;;;;1.30;1.20;;;14.30;99.90;;;;;;5007360;28;20415;-76
2022/07/01 06:50:54;;;;;;;0.97;0.87;;;14.30;99.90;;;;;;5007494;28;20511;-76
2022/07/01 06:53:19;;;;;;;2.07;1.10;;;14.30;99.90;;;;;;4989576;28;20981;-76
2022/07/01 06:55:45;;;;;;;1.33;1.23;;;14.30;99.90;;;;;;5007140;28;20691;-76
2022/07/01 06:58:11;;;;;;;1.93;1.20;;;14.30;99.90;;;;;;5007192;28;20174;-76
2022/07/01 07:00:37;;;;;;;1.27;1.13;;;14.30;99.90;;;;;;5007283;28;20794;-76
2022/07/01 07:03:03;;;;;;;2.20;1.10;;;14.30;99.90;;;;;;5007544;28;20179;-77
2022/07/01 07:05:30;;;;;;;1.93;0.90;;;14.30;99.90;;;;;;5007695;28;20217;-76
2022/07/01 07:07:56;;;;;;;1.63;0.90;;;14.30;99.90;;;;;;4974129;28;20435;-76
2022/07/01 07:10:22;;;;;;;1.23;1.10;;;14.40;99.90;;;;;;4989948;28;20429;-76
2022/07/01 07:12:48;;;;;;;1.67;0.90;;;14.40;99.90;;;;;;4976779;28;20432;-76
2022/07/01 07:15:14;;;;;;;3.73;1.70;;;14.40;99.90;;;;;;4994254;28;20646;-76
2022/07/01 07:17:41;;;;;;;2.23;1.50;;;14.30;99.90;;;;;;4994384;28;20300;-78
2022/07/01 07:20:07;;;;;;;1.33;1.10;;;14.30;99.90;;;;;;4977913;28;20447;-76
2022/07/01 07:22:33;;;;;;;1.30;1.20;;;14.30;99.90;;;;;;4995683;28;20420;-77
2022/07/01 07:24:58;;;;;;;0.90;0.80;;;14.40;99.90;;;;;;5011755;28;20494;-76
2022/07/01 07:27:24;;;;;;;2.90;1.00;;;14.40;99.90;;;;;;4994015;28;20302;-76
2022/07/01 07:29:50;;;;;;;1.57;1.20;;;14.40;99.90;;;;;;5011157;28;20209;-76
2022/07/01 07:32:15;;;;;;;2.00;1.10;;;14.40;99.90;;;;;;4976956;28;20277;-77
2022/07/01 07:34:41;;;;;;;1.20;1.10;;;14.40;99.90;;;;;;4992899;28;20229;-78
2022/07/01 07:37:07;;;;;;;3.43;1.10;;;14.50;99.90;;;;;;4976737;28;20660;-77
2022/07/01 07:39:32;;;;;;;2.13;1.00;;;14.50;99.90;;;;;;4993494;28;20194;-76
2022/07/01 07:41:59;;;;;;;1.50;1.30;;;14.50;99.90;;;;;;4993620;28;20188;-76
2022/07/01 07:44:24;;;;;;;2.70;1.00;;;14.60;99.90;;;;;;5011470;28;20447;-77
2022/07/01 07:46:50;;;;;;;1.33;1.10;;;14.60;99.90;;;;;;4977672;28;20443;-77
2022/07/01 07:49:16;;;;;;;1.73;0.80;;;14.60;99.90;;;;;;4993554;28;20667;-77
2022/07/01 07:51:42;;;;;;;2.80;1.00;;;14.60;99.90;;;;;;5011244;28;20460;-78
2022/07/01 07:54:07;;;;;;;1.60;1.20;;;14.60;99.90;;;;;;4993645;28;20240;-77
2022/07/01 07:56:33;;;;;;;2.77;1.40;;;14.60;99.90;;;;;;5011129;28;20209;-77
2022/07/01 07:58:59;;;;;;;2.50;1.20;;;14.60;99.90;;;;;;5010942;28;20178;-76
2022/07/01 08:01:24;;;;;;;1.90;1.47;;;14.60;99.90;;;;;;5010712;28;20181;-77
2022/07/01 08:03:50;;;;;;;1.53;1.03;;;14.50;99.90;;;;;;4992957;28;20181;-77
2022/07/01 08:06:16;;;;;;;1.20;1.10;;;14.50;99.90;;;;;;5011086;28;20182;-77
2022/07/01 08:08:41;;;;;;;1.17;1.07;;;14.40;99.90;;;;;;5011248;28;20224;-77
2022/07/01 08:11:07;;;;;;;1.20;1.07;;;14.40;99.90;;;;;;5010903;28;20714;-76
2022/07/01 08:13:33;;;;;;;4.30;1.87;;;14.50;99.90;;;;;;4976987;28;20197;-77
2022/07/01 08:15:59;;;;;;;1.63;1.27;;;14.40;99.90;;;;;;5010865;28;20279;-77
2022/07/01 08:18:25;;;;;;;1.53;1.10;;;14.40;99.90;;;;;;5010695;28;20183;-78
2022/07/01 08:20:52;;;;;;;3.33;1.50;;;14.50;99.90;;;;;;4976870;28;20483;-77
2022/07/01 08:23:22;;;;;;;1.60;1.30;;;14.50;99.90;;;;;;5010459;28;20220;-77
2022/07/01 08:25:49;;;;;;;1.50;1.20;;;14.60;99.90;;;;;;4992456;28;20451;-76
2022/07/01 08:28:14;;;;;;;1.23;1.10;;;14.60;99.90;;;;;;5010345;28;20432;-77
2022/07/01 08:30:40;;;;;;;1.40;1.30;;;14.60;99.90;;;;;;4992816;28;20450;-76
2022/07/01 08:33:06;;;;;;;1.20;1.10;;;14.60;99.90;;;;;;4992531;28;20455;-77
2022/07/01 08:35:31;;;;;;;1.53;1.20;;;14.50;99.90;;;;;;5009906;28;20217;-76
2022/07/01 08:37:57;;;;;;;1.30;1.10;;;14.60;99.90;;;;;;5009787;28;20254;-77
2022/07/01 08:40:30;;;;;;;3.00;1.27;;;14.60;99.90;;;;;;5009579;28;20672;-77
2022/07/01 08:43:01;;;;;;;1.83;1.30;;;14.60;99.90;;;;;;5009541;28;20428;-77
2022/07/01 08:45:29;;;;;;;1.43;0.90;;;14.50;99.90;;;;;;4992257;28;20949;-77
2022/07/01 08:48:02;;;;;;;4.00;1.20;;;14.60;99.90;;;;;;5009586;28;20424;-76
2022/07/01 08:50:39;;;;;;;1.50;1.23;;;14.60;99.90;;;;;;5009859;28;20473;-77
2022/07/01 08:53:06;;;;;;;1.70;1.00;;;14.70;99.90;;;;;;4991940;28;20432;-77
2022/07/01 08:56:40;;;;;;;1.27;1.10;;;14.70;99.90;;;;;;5009963;28;20459;-76
2022/07/01 08:58:20;;;;;;;1.20;0.90;;;14.80;99.90;;;;;;5010446;28;20463;-77
2022/07/01 09:00:45;;;;;;;0.90;0.80;;;14.80;99.90;;;;;;4995446;28;20898;-77
2022/07/01 09:03:14;;;;;;;3.00;0.90;;;14.80;99.90;;;;;;5013345;28;20420;-77
2022/07/01 09:05:49;;;;;;;1.50;0.90;;;14.90;99.90;;;;;;4997018;28;20296;-77
2022/07/01 09:08:14;;;;;;;1.37;0.93;;;14.90;99.90;;;;;;4996424;28;20424;-77
2022/07/01 09:10:40;;;;;;;1.70;0.93;;;14.90;99.90;;;;;;4998904;28;20439;-78
2022/07/01 09:13:11;;;;;;;1.17;0.80;;;14.90;99.90;;;;;;5027617;28;20229;-78
2022/07/01 09:15:38;;;;;;;2.00;0.70;;;15.00;99.90;;;;;;5033594;28;20217;-78
2022/07/01 09:18:04;;;;;;;0.90;0.70;;;14.90;99.90;;;;;;5030787;28;20432;-76
2022/07/01 09:20:33;;;;;;;0.93;0.63;;;14.90;99.90;;;;;;5028784;28;20519;-78
2022/07/01 09:23:10;;;;;;;1.03;0.70;;;14.90;99.90;;;;;;5016847;28;20430;-77
2022/07/01 09:25:56;;;;;;;1.50;1.10;;;14.90;99.90;;;;;;5010129;28;20439;-77
2022/07/01 09:28:24;;;;;;;1.00;0.60;;;14.90;99.90;;;;;;5008981;28;20444;-77
2022/07/01 09:30:51;;;;;;;0.90;0.70;;;15.00;99.90;;;;;;4991560;28;20459;-77
2022/07/01 09:33:23;;;;;;;0.80;0.80;;;14.90;99.90;;;;;;5009352;28;20431;-77
2022/07/01 09:35:49;;;;;;;1.93;0.80;;;14.90;99.90;;;;;;4975344;28;20476;-77
2022/07/01 09:38:23;;;;;;;0.93;0.77;;;15.00;99.90;;;;;;5009194;28;20833;-77
2022/07/01 09:40:58;;;;;;;3.10;1.53;;;14.90;99.90;;;;;;5009162;28;20406;-78
2022/07/01 09:43:34;;;;;;;3.27;1.57;;;15.00;99.90;;;;;;4991180;28;20790;-77
2022/07/01 09:46:07;;;;;;;2.20;0.60;;;14.90;99.90;;;;;;4991296;28;20443;-77
2022/07/01 09:48:33;;;;;;;0.90;0.70;;;14.90;99.90;;;;;;5009093;28;20419;-77
2022/07/01 09:51:00;;;;;;;1.00;0.90;;;14.90;99.90;;;;;;4991102;28;20946;-77
2022/07/01 09:53:26;;;;;;;1.40;0.80;;;14.90;99.90;;;;;;5008662;28;20189;-76
2022/07/01 09:55:52;;;;;;;3.60;0.80;;;14.90;99.90;;;;;;4991190;28;20596;-78
2022/07/01 09:58:18;;;;;;;2.90;0.67;;;14.90;99.90;;;;;;5008966;28;20482;-77
2022/07/01 10:00:44;;;;;;;1.83;0.80;;;14.80;99.90;;;;;;4991234;28;20517;-78
2022/07/01 10:03:10;;;;;;;1.60;0.80;;;14.80;99.90;;;;;;4991199;28;20429;-76
2022/07/01 10:05:48;;;;;;;1.27;1.17;;;14.90;99.90;;;;;;5009062;28;20444;-77
2022/07/01 10:08:21;;;;;;;1.97;0.93;;;14.90;99.90;;;;;;5009051;28;20428;-77
2022/07/01 10:11:24;;;;;;;1.63;0.80;;;14.90;99.90;;;;;;5009130;28;20440;-78
2022/07/01 10:13:51;;;;;;;1.20;0.70;;;14.90;99.90;;;;;;5008757;28;20444;-76
2022/07/01 10:16:18;;;;;;;1.67;0.80;;;14.90;99.90;;;;;;5008908;28;21079;-77
2022/07/01 10:18:43;;;;;;;0.90;0.70;;;14.80;99.90;;;;;;5009164;28;20417;-78
2022/07/01 10:21:24;;;;;;;0.80;0.70;;;14.80;99.90;;;;;;5009464;28;20420;-77
2022/07/01 10:23:51;;;;;;;1.27;0.97;;;14.80;99.90;;;;;;4991416;28;20174;-77
2022/07/01 10:26:19;;;;;;;1.47;0.90;;;14.90;99.90;;;;;;4991399;28;20429;-77
2022/07/01 10:28:48;;;;;;;0.80;0.67;;;15.00;99.90;;;;;;4991451;28;20466;-77
2022/07/01 10:31:17;;;;;;;0.80;0.60;;;15.10;99.90;;;;;;5008939;28;21018;-77
2022/07/01 10:33:48;;;;;;;0.80;0.57;;;15.10;99.90;;;;;;5008630;28;20428;-75
2022/07/01 10:36:51;;;;;;;1.03;0.70;;;15.20;99.90;;;;;;4990839;28;20498;-75
2022/07/01 10:39:22;;;;;;;1.67;0.70;;;15.20;99.90;;;;;;5008420;28;20518;-73
2022/07/01 10:41:54;;;;;;;1.50;0.70;;;15.30;99.90;;;;;;4991617;28;20412;-73
2022/07/01 10:44:21;;;;;;;1.93;0.70;;;15.30;99.90;;;;;;5008307;28;20934;-73
2022/07/01 10:47:11;;;;;;;1.37;0.60;;;15.30;99.90;;;;;;5009161;28;20462;-73
2022/07/01 10:49:36;;;;;;;1.17;0.70;;;15.30;99.90;;;;;;5011008;28;20487;-73
2022/07/01 10:52:07;;;;;;;0.80;0.60;;;15.30;99.90;;;;;;5011723;28;20421;-73
2022/07/01 10:54:36;;;;;;;0.80;0.60;;;15.20;99.90;;;;;;4994499;28;20233;-73
2022/07/01 10:57:19;;;;;;;1.00;0.60;;;15.30;99.90;;;;;;5011566;28;20502;-73
2022/07/01 10:59:52;;;;;;;1.37;0.87;;;15.40;99.90;;;;;;5011556;28;20438;-73
2022/07/01 11:02:30;;;;;;;2.20;0.70;;;15.50;99.90;;;;;;5011673;28;20420;-73
2022/07/01 11:04:58;;;;;;;2.17;0.80;;;15.60;99.90;;;;;;4994135;28;20440;-77
2022/07/01 11:07:26;;;;;;;0.80;0.60;;;15.60;99.90;;;;;;4994033;28;20425;-78
2022/07/01 11:09:52;;;;;;;1.73;0.83;;;15.60;99.90;;;;;;5011638;28;20496;-77
2022/07/01 11:12:20;;;;;;;2.03;1.10;;;15.60;99.90;;;;;;5011645;28;20909;-78
2022/07/01 11:14:46;;;;;;;2.10;0.70;;;15.60;99.90;;;;;;4993930;28;20432;-77
2022/07/01 11:17:11;;;;;;;1.53;0.90;;;15.50;99.90;;;;;;4994356;28;20477;-77
2022/07/01 11:19:37;;;;;;;0.90;0.60;;;15.50;99.90;;;;;;5012678;28;20797;-77
2022/07/01 11:22:05;;;;;;;1.00;0.67;;;15.50;99.90;;;;;;5012865;28;20806;-77
2022/07/01 11:24:31;;;;;;;0.80;0.70;;;15.60;99.90;;;;;;4994374;28;20279;-78
2022/07/01 11:27:06;;;;;;;1.60;0.60;;;15.70;99.90;;;;;;4994013;28;20456;-77
2022/07/01 11:29:32;;;;;;;1.30;0.70;;;15.80;99.90;;;;;;5011521;28;20176;-78
2022/07/01 11:31:57;;;;;;;1.30;0.50;;;15.80;99.90;;;;;;5011346;28;20417;-77
2022/07/01 11:34:26;;;;;;;0.80;0.50;;;15.90;99.90;;;;;;5010921;28;20292;-78
2022/07/01 11:39:36;;;;;;;0.80;0.67;;;15.80;99.90;;;;;;5010881;28;20484;-78
2022/07/01 11:42:06;;;;;;;1.00;0.73;;;15.80;99.90;;;;;;4976682;28;20451;-78
2022/07/01 11:44:37;;;;;;;1.07;0.60;;;15.80;99.90;;;;;;5010903;28;20715;-77
2022/07/01 11:47:23;;;;;;;1.53;0.60;;;15.80;99.90;;;;;;4993297;28;20528;-78
2022/07/01 11:49:49;;;;;;;2.10;0.57;;;15.80;99.90;;;;;;5010668;28;20524;-78
2022/07/01 11:52:17;;;;;;;1.10;0.60;;;15.90;99.90;;;;;;5010519;28;20427;-78
2022/07/01 11:54:52;;;;;;;0.93;0.57;;;15.90;99.90;;;;;;4993019;28;20855;-78
2022/07/01 11:57:21;;;;;;;0.97;0.50;;;15.90;99.90;;;;;;4992133;28;20464;-78
2022/07/01 11:59:49;;;;;;;0.70;0.50;;;15.90;99.90;;;;;;5010716;28;20504;-78
2022/07/01 12:02:17;;;;;;;2.33;0.60;;;16.00;99.90;;;;;;4977611;28;20457;-78
2022/07/01 12:04:43;;;;;;;1.00;0.70;;;16.10;99.90;;;;;;4993450;28;20448;-77
2022/07/01 12:07:11;;;;;;;0.70;0.50;;;16.40;99.90;;;;;;5011946;28;20429;-78
2022/07/01 12:09:38;;;;;;;0.87;0.63;;;16.70;99.90;;;;;;5012721;28;20466;-78
2022/07/01 12:12:04;;;;;;;3.93;0.60;;;16.90;99.90;;;;;;4996351;28;20425;-78
2022/07/01 12:14:33;;;;;;;2.70;0.70;;;17.00;99.90;;;;;;4995440;28;20449;-78
2022/07/01 12:17:00;;;;;;;0.97;0.60;;;17.10;99.90;;;;;;5012350;28;20470;-78
2022/07/01 12:19:46;;;;;;;0.90;0.63;;;17.10;99.90;;;;;;4976463;28;20433;-78
2022/07/01 12:22:15;;;;;;;0.80;0.60;;;17.20;99.90;;;;;;4994229;28;20497;-80
2022/07/01 12:24:41;;;;;;;0.83;0.50;;;17.30;99.90;;;;;;5012908;28;21414;-79
2022/07/01 12:27:08;;;;;;;0.97;0.87;;;17.20;99.90;;;;;;5012645;28;20429;-79
2022/07/01 12:29:43;;;;;;;0.80;0.67;;;17.20;99.90;;;;;;4978630;28;21234;-79
2022/07/01 12:32:12;;;;;;;1.27;0.60;;;17.20;99.90;;;;;;5012007;28;20427;-79
2022/07/01 12:34:53;;;;;;;1.47;0.70;;;17.20;99.90;;;;;;5012027;28;20472;-79
2022/07/01 12:37:25;;;;;;;1.10;0.67;;;17.40;99.90;;;;;;4993929;28;20470;-79
2022/07/01 12:39:56;;;;;;;1.13;0.57;;;17.50;99.90;;;;;;5011641;28;20482;-80
2022/07/01 12:42:44;;;;;;;0.80;0.50;;;17.70;99.90;;;;;;5011359;28;20411;-79
2022/07/01 12:45:13;;;;;;;0.70;0.47;;;17.80;99.90;;;;;;5011029;28;20485;-78
2022/07/01 12:47:42;;;;;;;1.30;0.73;;;17.90;99.90;;;;;;4992901;28;20473;-78
2022/07/01 12:50:21;;;;;;;1.60;0.67;;;18.30;99.90;;;;;;4975935;28;20431;-78
2022/07/01 12:53:00;;;;;;;1.27;0.80;;;18.90;99.90;;;;;;4992531;28;20428;-77
2022/07/01 12:55:27;;;;;;;1.00;0.60;;;19.10;99.90;;;;;;4975663;28;20603;-77
2022/07/01 12:57:59;;;;;;;1.13;0.60;;;19.30;99.90;;;;;;4991908;28;20510;-77
2022/07/01 13:00:27;;;;;;;0.70;0.50;;;18.90;99.90;;;;;;5009632;28;20795;-77
2022/07/01 13:02:55;;;;;;;1.67;0.50;;;18.70;99.90;;;;;;5010288;28;20870;-78
2022/07/01 13:05:21;;;;;;;1.20;0.80;;;18.90;99.90;;;;;;4992249;28;20434;-76
2022/07/01 13:07:47;;;;;;;3.50;0.60;;;18.70;99.90;;;;;;5009563;28;20427;-77